KCOQ

Cloquet Carlton County Airport

Cloquet, Minnesota, USA
METAR KCOQ 140455Z AUTO 20003KT 10SM OVC075 M09/M14 A3036 RMK AO2
Observed Flight Rules
Nov-14 @ 04:55 UTC (8 minutes ago) Visual Flight Rules
Wind Visibility Clouds
200° at 3 knots 10 miles
  • Overcast at 7,500' AGL
Temperatures Readings
Current -9°C / 16°F
Dewpoint -14°C / 7°F
Humidity 67%
Altimeter 30.36" Hg
Pressure 1028 hPa
Elevation 390
METAR KCOQ 140455Z AUTO 20003KT 10SM OVC075 M09/M14 A3036 RMK AO2
Observed Flight Rules
Nov-14 @ 04:55 UTC
(8 minutes ago)
VFR
Wind Visibility
200° at 3 knots 10 miles
Clouds
  • Overcast at 7,500' AGL
Temperature Dewpoint
-9°C / 16°F -14°C / 7°F
Humidity Altimeter Pressure
67% 30.36" Hg 1028 hPa